Thalassa — FNFP — position and weather

sailwx.info

Track history (hours):
 
Tides and Currents Weather Stations Pressure Air Temp Water Temp Dewpoint Dewpoint Depression Visibility Wind Speed Wind Dir Waves Ship Positions

Oceanographic research ship Thalassa (France & Spain)

Detailed information on ship capabilities available from University of Delaware's Ocean Information Center.

Last reported at 2018-May-25 12:17 UTC. Time now 2018-May-25 14:33 UTC.
Position N 47°03' W 004°06'.

Length 74 m; beam 15 m.

Type: Other ship. MMSI: 227297000.

Date/timePositionNaut miles runAvg speedWind from/ knotsBaromVisibWave heightAir tempDewpointWater temp
2018-May-25 12:17N 47°03' W 004°06'20 8.7
2018-May-25 09:59N 47°08' W 004°34'610.1
2018-May-25 09:20N 47°04' W 004°41'410.1
2018-May-25 08:59N 47°01' W 004°44'20 5.1
2018-May-25 05:01N 46°46' W 005°04'0 9.9
2018-May-25 05:00N 46°46' W 005°04'510.0
2018-May-25 04:31N 46°43' W 005°09'13 1.9
2018-May-24 21:47N 46°54' W 005°18'8 6.7
2018-May-24 20:36N 47°00' W 005°10'0 0.6
2018-May-24 20:30N 47°00' W 005°10'9 8.6
2018-May-24 19:27N 47°07' W 005°01'510.6
2018-May-24 19:00N 47°11' W 004°57'1 0.7
2018-May-24 18:00N 47°11' W 004°56'2 3.9
2018-May-24 17:31N 47°12' W 004°54'6 6.0
2018-May-24 16:28N 47°17' W 004°48'9 9.1
2018-May-24 15:27N 47°10' W 004°57'710.0
2018-May-24 14:48N 47°05' W 005°03'410.2
2018-May-24 14:21N 47°02' W 005°08'14 2.3
2018-May-24 08:19N 47°05' W 005°27'710.0
2018-May-24 07:34N 47°10' W 005°20'210.0
2018-May-24 07:21N 47°12' W 005°18'510.5
2018-May-24 06:53N 47°15' W 005°13'2 1.7
2018-May-24 05:51N 47°14' W 005°15'2 3.6
2018-May-24 05:16N 47°12' W 005°17'2 9.6
2018-May-24 05:01N 47°14' W 005°14'15 6.6
2018-May-24 02:43N 47°29' W 005°11'7 0.5
2018-May-23 11:17N 47°36' W 005°09'2 3.4
2018-May-23 10:44N 47°35' W 005°11'6 5.4
2018-May-23 09:39N 47°31' W 005°17'510.2
2018-May-23 09:11N 47°34' W 005°12'210.0
2018-May-23 09:01N 47°36' W 005°10'510.1
2018-May-23 08:31N 47°39' W 005°05'510.1
2018-May-23 08:01N 47°43' W 005°00'5 9.2
2018-May-23 07:31N 47°46' W 004°56'5 9.9
2018-May-23 07:00N 47°50' W 004°51'510.1
2018-May-23 06:31N 47°54' W 004°46'510.0
2018-May-23 06:01N 47°58' W 004°41'510.0
2018-May-23 05:29N 47°58' W 004°33'4 8.2
2018-May-23 05:00N 47°56' W 004°29'5 9.3
2018-May-23 04:30N 47°52' W 004°25'0 0.2
2018-May-23 03:59N 47°52' W 004°25'0 0.5
2018-May-23 03:30N 47°52' W 004°25'0 0.4
2018-May-23 03:00N 47°52' W 004°25'0 0.3
2018-May-23 02:30N 47°52' W 004°25'0 0.2
2018-May-23 02:00N 47°52' W 004°25'0 0.2
2018-May-23 01:31N 47°52' W 004°25'0 0.2
2018-May-23 01:00N 47°52' W 004°25'0 0.2
2018-May-23 00:30N 47°52' W 004°25'1 3.0
2018-May-23 00:00N 47°51' W 004°27'611.3
2018-May-22 23:30N 47°47' W 004°32'4 7.2
2018-May-22 22:58N 47°44' W 004°36'1 2.0
2018-May-22 22:30N 47°43' W 004°37'510.3
2018-May-22 22:01N 47°39' W 004°42'510.5
2018-May-22 21:31N 47°35' W 004°47'3 3.3
2018-May-22 20:42N 47°33' W 004°50'211.1
2018-May-22 20:31N 47°32' W 004°52'611.4
2018-May-22 20:00N 47°27' W 004°57'611.6
2018-May-22 19:28N 47°23' W 005°04'5 7.9
2018-May-22 18:46N 47°18' W 005°09'30 7.5
2018-May-22 14:45N 47°41' W 004°39'210.1
2018-May-22 14:31N 47°43' W 004°37'510.1
2018-May-22 14:00N 47°47' W 004°32'510.1
2018-May-22 13:30N 47°50' W 004°27'2 3.4
2018-May-22 13:00N 47°52' W 004°26'2 3.9
2018-May-22 12:29N 47°50' W 004°27'2 3.8
2018-May-22 12:00N 47°49' W 004°29'3 4.4
2018-May-22 11:19N 47°49' W 004°25'5 9.8
2018-May-22 10:48N 47°45' W 004°21'18 6.6
2018-May-22 08:08N 47°29' W 004°32'210.1
2018-May-22 07:58N 47°28' W 004°34'510.1
2018-May-22 07:30N 47°24' W 004°38'510.2
2018-May-22 07:00N 47°21' W 004°43'4 8.7
2018-May-22 06:30N 47°17' W 004°47'2 3.3
2018-May-22 06:01N 47°19' W 004°46'2 4.0
2018-May-22 05:30N 47°20' W 004°44'0 0.2
2018-May-22 04:57N 47°20' W 004°44'510.0
2018-May-22 04:30N 47°17' W 004°48'5 2.3
2018-May-22 02:30N 47°15' W 004°42'3 5.2
2018-May-22 01:57N 47°15' W 004°38'6 7.8
2018-May-22 01:08N 47°09' W 004°41'2 6.9
2018-May-22 00:54N 47°07' W 004°42'3 5.3
2018-May-22 00:21N 47°05' W 004°39'0 0.2
2018-May-21 23:59N 47°05' W 004°39'3 5.6
2018-May-21 23:31N 47°07' W 004°36'612.9
2018-May-21 23:01N 47°11' W 004°30'713.1
2018-May-21 22:30N 47°16' W 004°23'3 4.1
2018-May-21 21:41N 47°19' W 004°20'1 6.5
2018-May-21 21:30N 47°20' W 004°19'612.0
2018-May-21 21:00N 47°24' W 004°13'611.4
2018-May-21 20:31N 47°29' W 004°08'2 3.4
2018-May-21 20:01N 47°30' W 004°06'611.5
2018-May-21 19:30N 47°34' W 003°60'611.3
2018-May-21 19:01N 47°38' W 003°54'1 1.2
2018-May-21 18:31N 47°38' W 003°53'4 8.6
2018-May-21 18:01N 47°42' W 003°50'3 6.0
2018-May-21 17:31N 47°44' W 003°53'5 9.4
2018-May-21 17:00N 47°47' W 003°58'2 3.9
2018-May-21 16:30N 47°47' W 003°55'510.0
2018-May-21 16:00N 47°43' W 003°50'4 7.6
2018-May-21 15:31N 47°40' W 003°51'510.1
2018-May-21 15:01N 47°36' W 003°56'510.1
2018-May-21 14:30N 47°32' W 004°01'510.1
2018-May-21 14:01N 47°29' W 004°06'510.1
2018-May-21 13:30N 47°25' W 004°11'510.1
2018-May-21 13:01N 47°21' W 004°16'510.1
2018-May-21 12:30N 47°18' W 004°21'11 6.1
2018-May-21 10:45N 47°08' W 004°16'210.1
2018-May-21 10:31N 47°09' W 004°13'510.8
2018-May-21 10:00N 47°13' W 004°07'3 6.7
2018-May-21 09:30N 47°15' W 004°03'2 4.0
2018-May-21 09:01N 47°14' W 004°06'2 4.5
2018-May-21 08:31N 47°12' W 004°08'2 3.0
2018-May-21 08:00N 47°14' W 004°06'510.0
2018-May-21 07:31N 47°17' W 004°01'510.2
2018-May-21 07:00N 47°20' W 003°55'510.1
2018-May-21 06:31N 47°24' W 003°50'510.1
2018-May-21 06:01N 47°27' W 003°44'5 9.8
2018-May-21 05:31N 47°30' W 003°39'5 9.9
2018-May-21 05:01N 47°34' W 003°34'4 7.3
2018-May-21 04:31N 47°36' W 003°29'1 1.4
2018-May-21 04:01N 47°36' W 003°30'2 3.5
2018-May-21 03:31N 47°34' W 003°29'2 3.4
2018-May-21 03:01N 47°33' W 003°27'2 3.3
2018-May-21 02:30N 47°32' W 003°25'2 3.6
2018-May-21 02:01N 47°30' W 003°24'2 3.5
2018-May-21 01:30N 47°29' W 003°22'1 1.8
2018-May-21 01:00N 47°28' W 003°21'1 2.5
2018-May-21 00:30N 47°27' W 003°22'611.3
2018-May-21 00:01N 47°23' W 003°28'510.9
2018-May-20 23:31N 47°20' W 003°34'1 2.2
2018-May-20 23:01N 47°19' W 003°35'5 9.6
2018-May-20 22:28N 47°16' W 003°42'511.6
2018-May-20 22:01N 47°13' W 003°48'3 4.9
2018-May-20 21:29N 47°11' W 003°51'10 8.1
2018-May-20 20:18N 47°05' W 004°02'310.7
2018-May-20 20:00N 47°03' W 004°05'1 2.8
2018-May-20 19:30N 47°02' W 004°07'4 9.0
2018-May-20 19:01N 47°01' W 004°00'611.7
2018-May-20 18:30N 47°00' W 003°52'5 9.6
2018-May-20 18:01N 46°59' W 003°45'2 3.6
2018-May-20 17:29N 47°00' W 003°43'2 4.3
2018-May-20 17:01N 47°01' W 003°40'2 4.5
2018-May-20 16:29N 47°02' W 003°37'4 9.5
2018-May-20 16:01N 47°00' W 003°43'510.3
2018-May-20 15:31N 46°58' W 003°49'510.1
2018-May-20 15:01N 46°55' W 003°56'4 6.9
2018-May-20 14:27N 46°55' W 004°01'612.0
2018-May-20 13:56N 47°01' W 004°05'4 8.8
2018-May-20 13:29N 47°04' W 004°02'510.6
2018-May-20 13:00N 47°08' W 003°56'3 6.0
2018-May-20 12:31N 47°10' W 003°53'1 1.5
2018-May-20 12:01N 47°09' W 003°53'2 4.1
2018-May-20 11:30N 47°08' W 003°56'2 4.4
2018-May-20 11:01N 47°06' W 003°58'3 6.9
2018-May-20 10:31N 47°08' W 003°54'510.1
2018-May-20 10:01N 47°12' W 003°48'510.3
2018-May-20 09:31N 47°15' W 003°42'5 9.9
2018-May-20 09:01N 47°18' W 003°37'510.2
2018-May-20 08:31N 47°21' W 003°31'510.3
2018-May-20 08:01N 47°25' W 003°25'5 9.6
2018-May-20 07:30N 47°28' W 003°20'2 3.5
2018-May-20 07:00N 47°27' W 003°22'2 4.5
2018-May-20 06:31N 47°25' W 003°24'5 9.9
2018-May-20 06:00N 47°28' W 003°19'5 9.3
2018-May-20 05:31N 47°32' W 003°14'0 0.8
2018-May-20 05:01N 47°32' W 003°14'2 4.0
2018-May-20 04:31N 47°30' W 003°15'5 9.8
2018-May-20 04:00N 47°25' W 003°17'611.9
2018-May-20 03:30N 47°19' W 003°18'611.4
2018-May-20 03:01N 47°14' W 003°17'2 4.1
2018-May-20 02:30N 47°12' W 003°16'2 3.6
2018-May-20 02:01N 47°10' W 003°16'611.6
2018-May-20 01:30N 47°05' W 003°19'611.8
2018-May-20 01:00N 46°59' W 003°22'3 6.4
2018-May-20 00:29N 46°56' W 003°24'0 0.8
2018-May-20 00:00N 46°55' W 003°24'611.2
2018-May-19 23:29N 46°59' W 003°17'613.2
2018-May-19 23:01N 47°02' W 003°09'611.4
2018-May-19 22:31N 47°05' W 003°02'1 1.0
2018-May-19 22:00N 47°05' W 003°01'611.4
2018-May-19 21:30N 47°08' W 002°54'612.2
2018-May-19 21:00N 47°11' W 002°46'1 2.9
2018-May-19 20:31N 47°11' W 002°44'4 8.2
2018-May-19 20:00N 47°13' W 002°49'612.6
2018-May-19 19:31N 47°16' W 002°57'3 5.4
2018-May-19 19:01N 47°17' W 003°01'1 2.8
2018-May-19 18:31N 47°16' W 003°02'2 4.1
2018-May-19 18:01N 47°17' W 003°00'2 4.9
2018-May-19 17:30N 47°16' W 003°04'510.1
2018-May-19 17:01N 47°14' W 003°10'510.1
2018-May-19 16:30N 47°11' W 003°16'5 9.9
2018-May-19 16:00N 47°09' W 003°23'0 0.2
2018-May-19 15:31N 47°09' W 003°23'510.0
2018-May-19 15:01N 47°06' W 003°29'5 9.0
2018-May-19 14:26N 47°02' W 003°34'511.1
2018-May-19 14:00N 46°58' W 003°33'5 9.7
2018-May-19 13:31N 46°53' W 003°30'510.1
2018-May-19 13:00N 46°56' W 003°23'0 0.5
2018-May-19 12:30N 46°56' W 003°23'2 4.5
2018-May-19 12:00N 46°55' W 003°26'2 3.9
2018-May-19 11:29N 46°54' W 003°28'1 3.1
2018-May-19 11:00N 46°54' W 003°27'510.1
2018-May-19 10:31N 46°57' W 003°20'510.2
2018-May-19 09:59N 46°60' W 003°14'2 5.1
2018-May-19 09:31N 46°58' W 003°17'510.5
2018-May-19 08:59N 47°01' W 003°10'510.4
2018-May-19 08:30N 47°04' W 003°03'510.4
2018-May-19 08:00N 47°06' W 002°56'0 0.5
2018-May-19 07:31N 47°06' W 002°57'2 4.7
2018-May-19 07:01N 47°05' W 002°60'0 0.4
2018-May-19 06:30N 47°05' W 002°60'510.3
2018-May-19 06:01N 47°08' W 002°53'510.1
2018-May-19 05:30N 47°10' W 002°47'5 9.9
2018-May-19 05:00N 47°13' W 002°40'5 9.2
2018-May-19 04:31N 47°15' W 002°34'2 4.4
2018-May-19 04:01N 47°14' W 002°37'1 1.9
2018-May-19 03:31N 47°13' W 002°38'2 3.0
2018-May-19 03:00N 47°12' W 002°37'2 3.6
2018-May-19 02:30N 47°10' W 002°35'2 3.8
2018-May-19 02:00N 47°09' W 002°33'2 2.9
2018-May-19 01:27N 47°08' W 002°31'2 4.1
2018-May-19 01:01N 47°08' W 002°28'1 1.0
2018-May-19 00:30N 47°08' W 002°28'610.2
2018-May-18 23:57N 47°03' W 002°33'4 9.4
2018-May-18 23:30N 47°00' W 002°37'0 0.9
2018-May-18 23:00N 46°60' W 002°37'4 7.4
2018-May-18 22:30N 46°58' W 002°41'710.1
2018-May-18 21:46N 46°54' W 002°51'1 5.5
2018-May-18 21:30N 46°54' W 002°53'7 7.2
2018-May-18 20:33N 46°50' W 003°02'211.5
2018-May-18 20:24N 46°49' W 003°04'511.5
2018-May-18 19:58N 46°47' W 003°10'1 2.7
2018-May-18 19:30N 46°46' W 003°12'1 2.7
2018-May-18 19:01N 46°45' W 003°13'3 6.3
2018-May-18 18:31N 46°47' W 003°09'4 7.6
2018-May-18 18:01N 46°49' W 003°04'0 0.6
2018-May-18 17:31N 46°49' W 003°05'2 4.7
2018-May-18 17:00N 46°48' W 003°08'3 4.8
2018-May-18 16:28N 46°47' W 003°11'1 2.5
2018-May-18 16:01N 46°47' W 003°09'510.1
2018-May-18 15:29N 46°50' W 003°03'510.0
2018-May-18 14:58N 46°52' W 002°56'510.1
2018-May-18 14:30N 46°55' W 002°50'510.1
2018-May-18 14:00N 46°57' W 002°44'510.1
2018-May-18 13:30N 46°60' W 002°38'510.1
2018-May-18 13:00N 47°02' W 002°31'510.1
2018-May-18 12:31N 47°05' W 002°25'4 7.9
2018-May-18 12:00N 47°01' W 002°26'612.6
2018-May-18 11:30N 46°55' W 002°28'4 8.1
2018-May-18 11:00N 46°51' W 002°25'510.1
2018-May-18 10:30N 46°49' W 002°31'510.1
2018-May-18 10:01N 46°46' W 002°37'510.1
2018-May-18 09:30N 46°44' W 002°44'510.1
2018-May-18 08:58N 46°41' W 002°50'4 9.2
2018-May-18 08:30N 46°39' W 002°56'2 4.1
2018-May-18 07:59N 46°40' W 002°53'2 4.9
2018-May-18 07:31N 46°41' W 002°50'3 5.7
2018-May-18 06:57N 46°39' W 002°54'410.1
2018-May-18 06:31N 46°37' W 002°60'5 9.7
2018-May-18 05:58N 46°34' W 003°06'5 9.9
2018-May-18 05:30N 46°32' W 003°12'5 9.9
2018-May-18 05:00N 46°30' W 003°18'2 2.1
2018-May-18 04:09N 46°28' W 003°19'1 3.5
2018-May-18 03:56N 46°28' W 003°18'6 3.5
2018-May-18 02:21N 46°27' W 003°10'2 3.5
2018-May-18 01:50N 46°27' W 003°08'2 3.5
2018-May-18 01:18N 46°27' W 003°05'5 3.7
2018-May-17 23:50N 46°26' W 002°57'0 0.4
2018-May-17 22:53N 46°26' W 002°56'0 0.9
2018-May-17 22:26N 46°26' W 002°56'1 1.9
2018-May-17 21:49N 46°26' W 002°54'412.2
2018-May-17 21:30N 46°28' W 002°49'712.9
2018-May-17 20:59N 46°31' W 002°41'4 6.3
2018-May-17 20:20N 46°33' W 002°36'3 7.7
2018-May-17 19:54N 46°35' W 002°32'512.7
2018-May-17 19:29N 46°38' W 002°25'4 9.2
2018-May-17 19:00N 46°40' W 002°20'0 0.9
2018-May-17 18:31N 46°40' W 002°19'2 3.2
2018-May-17 18:01N 46°41' W 002°17'12 8.6
2018-May-17 16:33N 46°35' W 002°33'1 2.5
2018-May-17 16:19N 46°35' W 002°32'1 4.0
2018-May-17 15:57N 46°36' W 002°30'2 4.0
2018-May-17 15:26N 46°37' W 002°28'35 6.7
2018-May-17 10:15N 46°20' W 003°11'15 1.0
2018-May-16 19:32N 46°12' W 003°30'0 0.6
2018-May-16 19:05N 46°12' W 003°29'13 1.0
2018-May-16 07:06N 46°02' W 003°18'310.1
2018-May-16 06:50N 46°04' W 003°14'410.1
2018-May-16 06:24N 46°06' W 003°09'810.0
2018-May-16 05:35N 46°10' W 002°59'3 9.9
2018-May-16 05:15N 46°12' W 002°54'310.1
2018-May-16 05:00N 46°13' W 002°51'2 2.9
2018-May-16 04:19N 46°13' W 002°49'411.1
2018-May-16 03:59N 46°10' W 002°51'611.3
2018-May-16 03:28N 46°05' W 002°55'1011.3
2018-May-16 02:37N 45°57' W 003°02'1 9.9
2018-May-16 02:30N 45°56' W 003°02'22 6.5
2018-May-15 23:08N 45°44' W 003°29'1 5.7
2018-May-15 22:59N 45°44' W 003°30'611.7
2018-May-15 22:29N 45°41' W 003°37'13 2.0
2018-May-15 15:59N 45°47' W 003°20'1510.0
2018-May-15 14:31N 45°54' W 003°02'1610.4
2018-May-15 12:57N 45°56' W 002°38'510.3
2018-May-15 12:30N 45°57' W 002°32'  
Track history (hours):
 
Tides and Currents Weather Stations Pressure Air Temp Water Temp Dewpoint Dewpoint Depression Visibility Wind Speed Wind Dir Waves Ship Positions

Oceanographic research ship Thalassa (France & Spain)

Detailed information on ship capabilities available from University of Delaware's Ocean Information Center.

Last reported at 2018-May-25 12:17 UTC. Time now 2018-May-25 14:33 UTC.
Position N 47°03' W 004°06'.

Length 74 m; beam 15 m.

Type: Other ship. MMSI: 227297000.

Date/timePositionNaut miles runAvg speedWind from/ knotsBaromVisibWave heightAir tempDewpointWater temp
2018-May-25 12:17N 47°03' W 004°06'20 8.7
2018-May-25 09:59N 47°08' W 004°34'610.1
2018-May-25 09:20N 47°04' W 004°41'410.1
2018-May-25 08:59N 47°01' W 004°44'20 5.1
2018-May-25 05:01N 46°46' W 005°04'0 9.9
2018-May-25 05:00N 46°46' W 005°04'510.0
2018-May-25 04:31N 46°43' W 005°09'13 1.9
2018-May-24 21:47N 46°54' W 005°18'8 6.7
2018-May-24 20:36N 47°00' W 005°10'0 0.6
2018-May-24 20:30N 47°00' W 005°10'9 8.6
2018-May-24 19:27N 47°07' W 005°01'510.6
2018-May-24 19:00N 47°11' W 004°57'1 0.7
2018-May-24 18:00N 47°11' W 004°56'2 3.9
2018-May-24 17:31N 47°12' W 004°54'6 6.0
2018-May-24 16:28N 47°17' W 004°48'9 9.1
2018-May-24 15:27N 47°10' W 004°57'710.0
2018-May-24 14:48N 47°05' W 005°03'410.2
2018-May-24 14:21N 47°02' W 005°08'14 2.3
2018-May-24 08:19N 47°05' W 005°27'710.0
2018-May-24 07:34N 47°10' W 005°20'210.0
2018-May-24 07:21N 47°12' W 005°18'510.5
2018-May-24 06:53N 47°15' W 005°13'2 1.7
2018-May-24 05:51N 47°14' W 005°15'2 3.6
2018-May-24 05:16N 47°12' W 005°17'2 9.6
2018-May-24 05:01N 47°14' W 005°14'15 6.6
2018-May-24 02:43N 47°29' W 005°11'7 0.5
2018-May-23 11:17N 47°36' W 005°09'2 3.4
2018-May-23 10:44N 47°35' W 005°11'6 5.4
2018-May-23 09:39N 47°31' W 005°17'510.2
2018-May-23 09:11N 47°34' W 005°12'210.0
2018-May-23 09:01N 47°36' W 005°10'510.1
2018-May-23 08:31N 47°39' W 005°05'510.1
2018-May-23 08:01N 47°43' W 005°00'5 9.2
2018-May-23 07:31N 47°46' W 004°56'5 9.9
2018-May-23 07:00N 47°50' W 004°51'510.1
2018-May-23 06:31N 47°54' W 004°46'510.0
2018-May-23 06:01N 47°58' W 004°41'510.0
2018-May-23 05:29N 47°58' W 004°33'4 8.2
2018-May-23 05:00N 47°56' W 004°29'5 9.3
2018-May-23 04:30N 47°52' W 004°25'0 0.2
2018-May-23 03:59N 47°52' W 004°25'0 0.5
2018-May-23 03:30N 47°52' W 004°25'0 0.4
2018-May-23 03:00N 47°52' W 004°25'0 0.3
2018-May-23 02:30N 47°52' W 004°25'0 0.2
2018-May-23 02:00N 47°52' W 004°25'0 0.2
2018-May-23 01:31N 47°52' W 004°25'0 0.2
2018-May-23 01:00N 47°52' W 004°25'0 0.2
2018-May-23 00:30N 47°52' W 004°25'1 3.0
2018-May-23 00:00N 47°51' W 004°27'611.3
2018-May-22 23:30N 47°47' W 004°32'4 7.2
2018-May-22 22:58N 47°44' W 004°36'1 2.0
2018-May-22 22:30N 47°43' W 004°37'510.3
2018-May-22 22:01N 47°39' W 004°42'510.5
2018-May-22 21:31N 47°35' W 004°47'3 3.3
2018-May-22 20:42N 47°33' W 004°50'211.1
2018-May-22 20:31N 47°32' W 004°52'611.4
2018-May-22 20:00N 47°27' W 004°57'611.6
2018-May-22 19:28N 47°23' W 005°04'5 7.9
2018-May-22 18:46N 47°18' W 005°09'30 7.5
2018-May-22 14:45N 47°41' W 004°39'210.1
2018-May-22 14:31N 47°43' W 004°37'510.1
2018-May-22 14:00N 47°47' W 004°32'510.1
2018-May-22 13:30N 47°50' W 004°27'2 3.4
2018-May-22 13:00N 47°52' W 004°26'2 3.9
2018-May-22 12:29N 47°50' W 004°27'2 3.8
2018-May-22 12:00N 47°49' W 004°29'3 4.4
2018-May-22 11:19N 47°49' W 004°25'5 9.8
2018-May-22 10:48N 47°45' W 004°21'18 6.6
2018-May-22 08:08N 47°29' W 004°32'210.1
2018-May-22 07:58N 47°28' W 004°34'510.1
2018-May-22 07:30N 47°24' W 004°38'510.2
2018-May-22 07:00N 47°21' W 004°43'4 8.7
2018-May-22 06:30N 47°17' W 004°47'2 3.3
2018-May-22 06:01N 47°19' W 004°46'2 4.0
2018-May-22 05:30N 47°20' W 004°44'0 0.2
2018-May-22 04:57N 47°20' W 004°44'510.0
2018-May-22 04:30N 47°17' W 004°48'5 2.3
2018-May-22 02:30N 47°15' W 004°42'3 5.2
2018-May-22 01:57N 47°15' W 004°38'6 7.8
2018-May-22 01:08N 47°09' W 004°41'2 6.9
2018-May-22 00:54N 47°07' W 004°42'3 5.3
2018-May-22 00:21N 47°05' W 004°39'0 0.2
2018-May-21 23:59N 47°05' W 004°39'3 5.6
2018-May-21 23:31N 47°07' W 004°36'612.9
2018-May-21 23:01N 47°11' W 004°30'713.1
2018-May-21 22:30N 47°16' W 004°23'3 4.1
2018-May-21 21:41N 47°19' W 004°20'1 6.5
2018-May-21 21:30N 47°20' W 004°19'612.0
2018-May-21 21:00N 47°24' W 004°13'611.4
2018-May-21 20:31N 47°29' W 004°08'2 3.4
2018-May-21 20:01N 47°30' W 004°06'611.5
2018-May-21 19:30N 47°34' W 003°60'611.3
2018-May-21 19:01N 47°38' W 003°54'1 1.2
2018-May-21 18:31N 47°38' W 003°53'4 8.6
2018-May-21 18:01N 47°42' W 003°50'3 6.0
2018-May-21 17:31N 47°44' W 003°53'5 9.4
2018-May-21 17:00N 47°47' W 003°58'2 3.9
2018-May-21 16:30N 47°47' W 003°55'510.0
2018-May-21 16:00N 47°43' W 003°50'4 7.6
2018-May-21 15:31N 47°40' W 003°51'510.1
2018-May-21 15:01N 47°36' W 003°56'510.1
2018-May-21 14:30N 47°32' W 004°01'510.1
2018-May-21 14:01N 47°29' W 004°06'510.1
2018-May-21 13:30N 47°25' W 004°11'510.1
2018-May-21 13:01N 47°21' W 004°16'510.1
2018-May-21 12:30N 47°18' W 004°21'11 6.1
2018-May-21 10:45N 47°08' W 004°16'210.1
2018-May-21 10:31N 47°09' W 004°13'510.8
2018-May-21 10:00N 47°13' W 004°07'3 6.7
2018-May-21 09:30N 47°15' W 004°03'2 4.0
2018-May-21 09:01N 47°14' W 004°06'2 4.5
2018-May-21 08:31N 47°12' W 004°08'2 3.0
2018-May-21 08:00N 47°14' W 004°06'510.0
2018-May-21 07:31N 47°17' W 004°01'510.2
2018-May-21 07:00N 47°20' W 003°55'510.1
2018-May-21 06:31N 47°24' W 003°50'510.1
2018-May-21 06:01N 47°27' W 003°44'5 9.8
2018-May-21 05:31N 47°30' W 003°39'5 9.9
2018-May-21 05:01N 47°34' W 003°34'4 7.3
2018-May-21 04:31N 47°36' W 003°29'1 1.4
2018-May-21 04:01N 47°36' W 003°30'2 3.5
2018-May-21 03:31N 47°34' W 003°29'2 3.4
2018-May-21 03:01N 47°33' W 003°27'2 3.3
2018-May-21 02:30N 47°32' W 003°25'2 3.6
2018-May-21 02:01N 47°30' W 003°24'2 3.5
2018-May-21 01:30N 47°29' W 003°22'1 1.8
2018-May-21 01:00N 47°28' W 003°21'1 2.5
2018-May-21 00:30N 47°27' W 003°22'611.3
2018-May-21 00:01N 47°23' W 003°28'510.9
2018-May-20 23:31N 47°20' W 003°34'1 2.2
2018-May-20 23:01N 47°19' W 003°35'5 9.6
2018-May-20 22:28N 47°16' W 003°42'511.6
2018-May-20 22:01N 47°13' W 003°48'3 4.9
2018-May-20 21:29N 47°11' W 003°51'10 8.1
2018-May-20 20:18N 47°05' W 004°02'310.7
2018-May-20 20:00N 47°03' W 004°05'1 2.8
2018-May-20 19:30N 47°02' W 004°07'4 9.0
2018-May-20 19:01N 47°01' W 004°00'611.7
2018-May-20 18:30N 47°00' W 003°52'5 9.6
2018-May-20 18:01N 46°59' W 003°45'2 3.6
2018-May-20 17:29N 47°00' W 003°43'2 4.3
2018-May-20 17:01N 47°01' W 003°40'2 4.5
2018-May-20 16:29N 47°02' W 003°37'4 9.5
2018-May-20 16:01N 47°00' W 003°43'510.3
2018-May-20 15:31N 46°58' W 003°49'510.1
2018-May-20 15:01N 46°55' W 003°56'4 6.9
2018-May-20 14:27N 46°55' W 004°01'612.0
2018-May-20 13:56N 47°01' W 004°05'4 8.8
2018-May-20 13:29N 47°04' W 004°02'510.6
2018-May-20 13:00N 47°08' W 003°56'3 6.0
2018-May-20 12:31N 47°10' W 003°53'1 1.5
2018-May-20 12:01N 47°09' W 003°53'2 4.1
2018-May-20 11:30N 47°08' W 003°56'2 4.4
2018-May-20 11:01N 47°06' W 003°58'3 6.9
2018-May-20 10:31N 47°08' W 003°54'510.1
2018-May-20 10:01N 47°12' W 003°48'510.3
2018-May-20 09:31N 47°15' W 003°42'5 9.9
2018-May-20 09:01N 47°18' W 003°37'510.2
2018-May-20 08:31N 47°21' W 003°31'510.3
2018-May-20 08:01N 47°25' W 003°25'5 9.6
2018-May-20 07:30N 47°28' W 003°20'2 3.5
2018-May-20 07:00N 47°27' W 003°22'2 4.5
2018-May-20 06:31N 47°25' W 003°24'5 9.9
2018-May-20 06:00N 47°28' W 003°19'5 9.3
2018-May-20 05:31N 47°32' W 003°14'0 0.8
2018-May-20 05:01N 47°32' W 003°14'2 4.0
2018-May-20 04:31N 47°30' W 003°15'5 9.8
2018-May-20 04:00N 47°25' W 003°17'611.9
2018-May-20 03:30N 47°19' W 003°18'611.4
2018-May-20 03:01N 47°14' W 003°17'2 4.1
2018-May-20 02:30N 47°12' W 003°16'2 3.6
2018-May-20 02:01N 47°10' W 003°16'611.6
2018-May-20 01:30N 47°05' W 003°19'611.8
2018-May-20 01:00N 46°59' W 003°22'3 6.4
2018-May-20 00:29N 46°56' W 003°24'0 0.8
2018-May-20 00:00N 46°55' W 003°24'611.2
2018-May-19 23:29N 46°59' W 003°17'613.2
2018-May-19 23:01N 47°02' W 003°09'611.4
2018-May-19 22:31N 47°05' W 003°02'1 1.0
2018-May-19 22:00N 47°05' W 003°01'611.4
2018-May-19 21:30N 47°08' W 002°54'612.2
2018-May-19 21:00N 47°11' W 002°46'1 2.9
2018-May-19 20:31N 47°11' W 002°44'4 8.2
2018-May-19 20:00N 47°13' W 002°49'612.6
2018-May-19 19:31N 47°16' W 002°57'3 5.4
2018-May-19 19:01N 47°17' W 003°01'1 2.8
2018-May-19 18:31N 47°16' W 003°02'2 4.1
2018-May-19 18:01N 47°17' W 003°00'2 4.9
2018-May-19 17:30N 47°16' W 003°04'510.1
2018-May-19 17:01N 47°14' W 003°10'510.1
2018-May-19 16:30N 47°11' W 003°16'5 9.9
2018-May-19 16:00N 47°09' W 003°23'0 0.2
2018-May-19 15:31N 47°09' W 003°23'510.0
2018-May-19 15:01N 47°06' W 003°29'5 9.0
2018-May-19 14:26N 47°02' W 003°34'511.1
2018-May-19 14:00N 46°58' W 003°33'5 9.7
2018-May-19 13:31N 46°53' W 003°30'510.1
2018-May-19 13:00N 46°56' W 003°23'0 0.5
2018-May-19 12:30N 46°56' W 003°23'2 4.5
2018-May-19 12:00N 46°55' W 003°26'2 3.9
2018-May-19 11:29N 46°54' W 003°28'1 3.1
2018-May-19 11:00N 46°54' W 003°27'510.1
2018-May-19 10:31N 46°57' W 003°20'510.2
2018-May-19 09:59N 46°60' W 003°14'2 5.1
2018-May-19 09:31N 46°58' W 003°17'510.5
2018-May-19 08:59N 47°01' W 003°10'510.4
2018-May-19 08:30N 47°04' W 003°03'510.4
2018-May-19 08:00N 47°06' W 002°56'0 0.5
2018-May-19 07:31N 47°06' W 002°57'2 4.7
2018-May-19 07:01N 47°05' W 002°60'0 0.4
2018-May-19 06:30N 47°05' W 002°60'510.3
2018-May-19 06:01N 47°08' W 002°53'510.1
2018-May-19 05:30N 47°10' W 002°47'5 9.9
2018-May-19 05:00N 47°13' W 002°40'5 9.2
2018-May-19 04:31N 47°15' W 002°34'2 4.4
2018-May-19 04:01N 47°14' W 002°37'1 1.9
2018-May-19 03:31N 47°13' W 002°38'2 3.0
2018-May-19 03:00N 47°12' W 002°37'2 3.6
2018-May-19 02:30N 47°10' W 002°35'2 3.8
2018-May-19 02:00N 47°09' W 002°33'2 2.9
2018-May-19 01:27N 47°08' W 002°31'2 4.1
2018-May-19 01:01N 47°08' W 002°28'1 1.0
2018-May-19 00:30N 47°08' W 002°28'610.2
2018-May-18 23:57N 47°03' W 002°33'4 9.4
2018-May-18 23:30N 47°00' W 002°37'0 0.9
2018-May-18 23:00N 46°60' W 002°37'4 7.4
2018-May-18 22:30N 46°58' W 002°41'710.1
2018-May-18 21:46N 46°54' W 002°51'1 5.5
2018-May-18 21:30N 46°54' W 002°53'7 7.2
2018-May-18 20:33N 46°50' W 003°02'211.5
2018-May-18 20:24N 46°49' W 003°04'511.5
2018-May-18 19:58N 46°47' W 003°10'1 2.7
2018-May-18 19:30N 46°46' W 003°12'1 2.7
2018-May-18 19:01N 46°45' W 003°13'3 6.3
2018-May-18 18:31N 46°47' W 003°09'4 7.6
2018-May-18 18:01N 46°49' W 003°04'0 0.6
2018-May-18 17:31N 46°49' W 003°05'2 4.7
2018-May-18 17:00N 46°48' W 003°08'3 4.8
2018-May-18 16:28N 46°47' W 003°11'1 2.5
2018-May-18 16:01N 46°47' W 003°09'510.1
2018-May-18 15:29N 46°50' W 003°03'510.0
2018-May-18 14:58N 46°52' W 002°56'510.1
2018-May-18 14:30N 46°55' W 002°50'510.1
2018-May-18 14:00N 46°57' W 002°44'510.1
2018-May-18 13:30N 46°60' W 002°38'510.1
2018-May-18 13:00N 47°02' W 002°31'510.1
2018-May-18 12:31N 47°05' W 002°25'4 7.9
2018-May-18 12:00N 47°01' W 002°26'612.6
2018-May-18 11:30N 46°55' W 002°28'4 8.1
2018-May-18 11:00N 46°51' W 002°25'510.1
2018-May-18 10:30N 46°49' W 002°31'510.1
2018-May-18 10:01N 46°46' W 002°37'510.1
2018-May-18 09:30N 46°44' W 002°44'510.1
2018-May-18 08:58N 46°41' W 002°50'4 9.2
2018-May-18 08:30N 46°39' W 002°56'2 4.1
2018-May-18 07:59N 46°40' W 002°53'2 4.9
2018-May-18 07:31N 46°41' W 002°50'3 5.7
2018-May-18 06:57N 46°39' W 002°54'410.1
2018-May-18 06:31N 46°37' W 002°60'5 9.7
2018-May-18 05:58N 46°34' W 003°06'5 9.9
2018-May-18 05:30N 46°32' W 003°12'5 9.9
2018-May-18 05:00N 46°30' W 003°18'2 2.1
2018-May-18 04:09N 46°28' W 003°19'1 3.5
2018-May-18 03:56N 46°28' W 003°18'6 3.5
2018-May-18 02:21N 46°27' W 003°10'2 3.5
2018-May-18 01:50N 46°27' W 003°08'2 3.5
2018-May-18 01:18N 46°27' W 003°05'5 3.7
2018-May-17 23:50N 46°26' W 002°57'0 0.4
2018-May-17 22:53N 46°26' W 002°56'0 0.9
2018-May-17 22:26N 46°26' W 002°56'1 1.9
2018-May-17 21:49N 46°26' W 002°54'412.2
2018-May-17 21:30N 46°28' W 002°49'712.9
2018-May-17 20:59N 46°31' W 002°41'4 6.3
2018-May-17 20:20N 46°33' W 002°36'3 7.7
2018-May-17 19:54N 46°35' W 002°32'512.7
2018-May-17 19:29N 46°38' W 002°25'4 9.2
2018-May-17 19:00N 46°40' W 002°20'0 0.9
2018-May-17 18:31N 46°40' W 002°19'2 3.2
2018-May-17 18:01N 46°41' W 002°17'12 8.6
2018-May-17 16:33N 46°35' W 002°33'1 2.5
2018-May-17 16:19N 46°35' W 002°32'1 4.0
2018-May-17 15:57N 46°36' W 002°30'2 4.0
2018-May-17 15:26N 46°37' W 002°28'35 6.7
2018-May-17 10:15N 46°20' W 003°11'15 1.0
2018-May-16 19:32N 46°12' W 003°30'0 0.6
2018-May-16 19:05N 46°12' W 003°29'13 1.0
2018-May-16 07:06N 46°02' W 003°18'310.1
2018-May-16 06:50N 46°04' W 003°14'410.1
2018-May-16 06:24N 46°06' W 003°09'810.0
2018-May-16 05:35N 46°10' W 002°59'3 9.9
2018-May-16 05:15N 46°12' W 002°54'310.1
2018-May-16 05:00N 46°13' W 002°51'2 2.9
2018-May-16 04:19N 46°13' W 002°49'411.1
2018-May-16 03:59N 46°10' W 002°51'611.3
2018-May-16 03:28N 46°05' W 002°55'1011.3
2018-May-16 02:37N 45°57' W 003°02'1 9.9
2018-May-16 02:30N 45°56' W 003°02'22 6.5
2018-May-15 23:08N 45°44' W 003°29'1 5.7
2018-May-15 22:59N 45°44' W 003°30'611.7
2018-May-15 22:29N 45°41' W 003°37'13 2.0
2018-May-15 15:59N 45°47' W 003°20'1510.0
2018-May-15 14:31N 45°54' W 003°02'1610.4
2018-May-15 12:57N 45°56' W 002°38'510.3
2018-May-15 12:30N 45°57' W 002°32'  

Dump ship's entire track history